Sao Gabriel, Brazil
Current Conditions -  °F | °C
As of 9:00 PM on Thursday 27 Nov 2014 (Local Time) from SBSM Reporting Station
Few Clouds Few Clouds  
Wind Chill: 73°   Ceiling: Unl
Heat Index: 73°   Visibility: 6mi
Dew Point: 64°   Wind: 5mph
Humidity: 73%   Direction: 120°ESE
Pressure: 29.88"   Gusts: NA
Location:  30.34°S, 54.32°W
Report Text: SBSM 272300Z 12004KT 9999 FEW045 23/18 Q1012
Loading
Personal Weather Stations






























Interactive Weather Map New forecast layout! Learn more

10-Day Weather Forecast

Advertisements
Track Severe Weather on mobile